sensor_id;sensor_type;location;lat;lon;timestamp;temperature;humidity
18388;DHT22;9320;50.256;19.026;2023-02-21T00:00:40;11.30;92.00
18388;DHT22;9320;50.256;19.026;2023-02-21T00:03:25;11.30;92.00
18388;DHT22;9320;50.256;19.026;2023-02-21T00:06:11;11.30;92.10
18388;DHT22;9320;50.256;19.026;2023-02-21T00:08:58;11.30;92.10
18388;DHT22;9320;50.256;19.026;2023-02-21T00:11:43;11.30;92.00
18388;DHT22;9320;50.256;19.026;2023-02-21T00:14:29;11.30;92.10
18388;DHT22;9320;50.256;19.026;2023-02-21T00:17:15;11.20;92.10
18388;DHT22;9320;50.256;19.026;2023-02-21T00:20:00;11.20;92.40
18388;DHT22;9320;50.256;19.026;2023-02-21T00:22:45;11.20;91.80
18388;DHT22;9320;50.256;19.026;2023-02-21T00:25:32;11.20;91.80
18388;DHT22;9320;50.256;19.026;2023-02-21T00:28:18;11.20;92.00
18388;DHT22;9320;50.256;19.026;2023-02-21T00:31:04;11.20;92.60
18388;DHT22;9320;50.256;19.026;2023-02-21T00:33:50;11.10;93.10
18388;DHT22;9320;50.256;19.026;2023-02-21T00:36:35;11.00;93.40
18388;DHT22;9320;50.256;19.026;2023-02-21T00:39:21;10.90;93.60
18388;DHT22;9320;50.256;19.026;2023-02-21T00:42:08;10.90;93.70
18388;DHT22;9320;50.256;19.026;2023-02-21T00:44:53;10.90;94.00
18388;DHT22;9320;50.256;19.026;2023-02-21T00:47:39;10.90;94.20
18388;DHT22;9320;50.256;19.026;2023-02-21T00:50:25;10.90;94.70
18388;DHT22;9320;50.256;19.026;2023-02-21T00:53:10;10.80;95.30
18388;DHT22;9320;50.256;19.026;2023-02-21T00:55:56;10.70;95.40
18388;DHT22;9320;50.256;19.026;2023-02-21T00:58:43;10.70;95.60
18388;DHT22;9320;50.256;19.026;2023-02-21T01:01:28;10.60;95.80
18388;DHT22;9320;50.256;19.026;2023-02-21T01:04:14;10.70;95.80
18388;DHT22;9320;50.256;19.026;2023-02-21T01:06:59;10.70;95.80
18388;DHT22;9320;50.256;19.026;2023-02-21T01:09:45;10.70;95.80
18388;DHT22;9320;50.256;19.026;2023-02-21T01:12:31;10.70;95.90
18388;DHT22;9320;50.256;19.026;2023-02-21T01:15:18;10.70;96.00
18388;DHT22;9320;50.256;19.026;2023-02-21T01:18:03;10.70;96.10
18388;DHT22;9320;50.256;19.026;2023-02-21T01:20:49;10.70;96.20
18388;DHT22;9320;50.256;19.026;2023-02-21T01:23:35;10.80;96.50
18388;DHT22;9320;50.256;19.026;2023-02-21T01:26:20;10.80;96.80
18388;DHT22;9320;50.256;19.026;2023-02-21T01:29:05;10.70;97.10
18388;DHT22;9320;50.256;19.026;2023-02-21T01:31:52;10.60;97.50
18388;DHT22;9320;50.256;19.026;2023-02-21T01:34:38;10.60;98.00
18388;DHT22;9320;50.256;19.026;2023-02-21T01:37:24;10.50;98.20
18388;DHT22;9320;50.256;19.026;2023-02-21T01:40:13;10.50;99.00
18388;DHT22;9320;50.256;19.026;2023-02-21T01:42:59;10.50;99.40
18388;DHT22;9320;50.256;19.026;2023-02-21T01:45:48;10.50;99.90
18388;DHT22;9320;50.256;19.026;2023-02-21T01:48:35;10.50;99.90
18388;DHT22;9320;50.256;19.026;2023-02-21T01:51:25;10.40;99.90
18388;DHT22;9320;50.256;19.026;2023-02-21T01:54:11;10.40;99.90
18388;DHT22;9320;50.256;19.026;2023-02-21T01:56:59;10.30;99.90
18388;DHT22;9320;50.256;19.026;2023-02-21T01:59:45;10.20;99.90
18388;DHT22;9320;50.256;19.026;2023-02-21T02:05:36;10.00;99.90
18388;DHT22;9320;50.256;19.026;2023-02-21T02:08:27;10.10;99.90
18388;DHT22;9320;50.256;19.026;2023-02-21T02:11:21;10.90;99.90
18388;DHT22;9320;50.256;19.026;2023-02-21T02:14:23;10.00;99.90
18388;DHT22;9320;50.256;19.026;2023-02-21T02:16:59;10.00;99.90
18388;DHT22;9320;50.256;19.026;2023-02-21T02:20:01;9.90;99.90
18388;DHT22;9320;50.256;19.026;2023-02-21T02:22:52;9.80;99.90
18388;DHT22;9320;50.256;19.026;2023-02-21T02:25:37;9.80;99.90
18388;DHT22;9320;50.256;19.026;2023-02-21T02:28:35;9.70;99.90
18388;DHT22;9320;50.256;19.026;2023-02-21T02:31:23;9.70;99.90
18388;DHT22;9320;50.256;19.026;2023-02-21T02:34:37;9.60;99.90
18388;DHT22;9320;50.256;19.026;2023-02-21T02:37:13;9.50;99.90
18388;DHT22;9320;50.256;19.026;2023-02-21T02:39:49;9.50;99.90
18388;DHT22;9320;50.256;19.026;2023-02-21T02:42:26;9.50;99.90
18388;DHT22;9320;50.256;19.026;2023-02-21T02:45:02;9.50;99.90
18388;DHT22;9320;50.256;19.026;2023-02-21T02:47:35;9.50;99.90
18388;DHT22;9320;50.256;19.026;2023-02-21T02:50:07;9.30;99.90
18388;DHT22;9320;50.256;19.026;2023-02-21T02:52:36;9.30;99.90
18388;DHT22;9320;50.256;19.026;2023-02-21T02:55:21;9.10;99.90
18388;DHT22;9320;50.256;19.026;2023-02-21T02:57:50;9.20;99.90
18388;DHT22;9320;50.256;19.026;2023-02-21T03:00:19;9.10;99.90
18388;DHT22;9320;50.256;19.026;2023-02-21T03:03:02;9.10;99.90
18388;DHT22;9320;50.256;19.026;2023-02-21T03:05:47;9.10;99.90
18388;DHT22;9320;50.256;19.026;2023-02-21T03:08:23;9.10;99.90
18388;DHT22;9320;50.256;19.026;2023-02-21T03:11:00;9.00;99.90
18388;DHT22;9320;50.256;19.026;2023-02-21T03:13:34;9.00;99.90
18388;DHT22;9320;50.256;19.026;2023-02-21T03:16:10;9.00;99.90
18388;DHT22;9320;50.256;19.026;2023-02-21T03:18:43;8.90;99.90
18388;DHT22;9320;50.256;19.026;2023-02-21T03:21:17;8.90;99.90
18388;DHT22;9320;50.256;19.026;2023-02-21T03:23:50;8.90;99.90
18388;DHT22;9320;50.256;19.026;2023-02-21T03:26:19;8.90;99.90
18388;DHT22;9320;50.256;19.026;2023-02-21T03:28:49;8.90;99.90
18388;DHT22;9320;50.256;19.026;2023-02-21T03:31:22;8.90;99.90
18388;DHT22;9320;50.256;19.026;2023-02-21T03:33:51;8.90;99.90
18388;DHT22;9320;50.256;19.026;2023-02-21T03:36:21;8.90;99.90
18388;DHT22;9320;50.256;19.026;2023-02-21T03:38:50;8.90;99.90
18388;DHT22;9320;50.256;19.026;2023-02-21T03:41:18;8.90;99.90
18388;DHT22;9320;50.256;19.026;2023-02-21T03:43:46;8.90;99.90
18388;DHT22;9320;50.256;19.026;2023-02-21T03:46:14;8.90;99.90
18388;DHT22;9320;50.256;19.026;2023-02-21T03:48:42;8.90;99.90
18388;DHT22;9320;50.256;19.026;2023-02-21T03:51:10;8.90;99.90
18388;DHT22;9320;50.256;19.026;2023-02-21T03:53:40;8.90;99.90
18388;DHT22;9320;50.256;19.026;2023-02-21T03:56:08;8.90;99.90
18388;DHT22;9320;50.256;19.026;2023-02-21T03:58:36;8.80;99.90
18388;DHT22;9320;50.256;19.026;2023-02-21T04:01:04;8.80;99.90
18388;DHT22;9320;50.256;19.026;2023-02-21T04:03:32;8.70;99.90
18388;DHT22;9320;50.256;19.026;2023-02-21T04:06:00;8.70;99.90
18388;DHT22;9320;50.256;19.026;2023-02-21T04:08:29;8.60;99.90
18388;DHT22;9320;50.256;19.026;2023-02-21T04:10:59;8.60;99.90
18388;DHT22;9320;50.256;19.026;2023-02-21T04:13:27;8.60;99.90
18388;DHT22;9320;50.256;19.026;2023-02-21T04:15:55;8.60;99.90
18388;DHT22;9320;50.256;19.026;2023-02-21T04:18:23;8.60;99.90
18388;DHT22;9320;50.256;19.026;2023-02-21T04:20:51;8.60;99.90
18388;DHT22;9320;50.256;19.026;2023-02-21T04:23:20;8.60;99.90
18388;DHT22;9320;50.256;19.026;2023-02-21T04:25:48;8.60;99.90
18388;DHT22;9320;50.256;19.026;2023-02-21T04:28:17;8.50;99.90
18388;DHT22;9320;50.256;19.026;2023-02-21T04:30:45;8.60;99.90
18388;DHT22;9320;50.256;19.026;2023-02-21T04:33:14;8.60;99.90
18388;DHT22;9320;50.256;19.026;2023-02-21T04:35:42;8.60;99.90
18388;DHT22;9320;50.256;19.026;2023-02-21T04:38:10;8.50;99.90
18388;DHT22;9320;50.256;19.026;2023-02-21T04:40:38;8.50;99.90
18388;DHT22;9320;50.256;19.026;2023-02-21T04:43:06;8.50;99.90
18388;DHT22;9320;50.256;19.026;2023-02-21T04:45:35;8.50;99.90
18388;DHT22;9320;50.256;19.026;2023-02-21T04:48:04;8.50;99.90
18388;DHT22;9320;50.256;19.026;2023-02-21T04:50:32;8.50;99.90
18388;DHT22;9320;50.256;19.026;2023-02-21T04:53:00;8.40;99.90
18388;DHT22;9320;50.256;19.026;2023-02-21T04:55:28;8.40;99.90
18388;DHT22;9320;50.256;19.026;2023-02-21T04:57:55;8.40;99.90
18388;DHT22;9320;50.256;19.026;2023-02-21T05:00:23;8.40;99.90
18388;DHT22;9320;50.256;19.026;2023-02-21T05:02:53;8.40;99.90
18388;DHT22;9320;50.256;19.026;2023-02-21T05:05:21;8.40;99.90
18388;DHT22;9320;50.256;19.026;2023-02-21T05:07:49;8.40;99.90
18388;DHT22;9320;50.256;19.026;2023-02-21T05:10:17;8.40;99.90
18388;DHT22;9320;50.256;19.026;2023-02-21T05:12:45;8.40;99.90
18388;DHT22;9320;50.256;19.026;2023-02-21T05:15:14;8.40;99.90
18388;DHT22;9320;50.256;19.026;2023-02-21T05:17:42;8.40;99.90
18388;DHT22;9320;50.256;19.026;2023-02-21T05:20:13;8.40;99.90
18388;DHT22;9320;50.256;19.026;2023-02-21T05:22:41;8.40;99.90
18388;DHT22;9320;50.256;19.026;2023-02-21T05:25:14;8.40;99.90
18388;DHT22;9320;50.256;19.026;2023-02-21T05:27:42;8.40;99.90
18388;DHT22;9320;50.256;19.026;2023-02-21T05:30:11;8.30;99.90
18388;DHT22;9320;50.256;19.026;2023-02-21T05:32:39;8.30;99.90
18388;DHT22;9320;50.256;19.026;2023-02-21T05:35:08;8.40;99.90
18388;DHT22;9320;50.256;19.026;2023-02-21T05:37:37;8.40;99.90
18388;DHT22;9320;50.256;19.026;2023-02-21T05:40:06;8.90;99.90
18388;DHT22;9320;50.256;19.026;2023-02-21T05:42:34;8.40;99.90
18388;DHT22;9320;50.256;19.026;2023-02-21T05:45:02;8.40;99.90
18388;DHT22;9320;50.256;19.026;2023-02-21T05:47:32;8.40;99.90
18388;DHT22;9320;50.256;19.026;2023-02-21T05:50:01;8.40;99.90
18388;DHT22;9320;50.256;19.026;2023-02-21T05:52:29;8.40;99.90
18388;DHT22;9320;50.256;19.026;2023-02-21T05:54:58;8.50;99.90
18388;DHT22;9320;50.256;19.026;2023-02-21T05:57:26;8.40;99.90
18388;DHT22;9320;50.256;19.026;2023-02-21T05:59:54;8.40;99.90
18388;DHT22;9320;50.256;19.026;2023-02-21T06:02:22;8.40;99.90
18388;DHT22;9320;50.256;19.026;2023-02-21T06:04:50;8.30;99.90
18388;DHT22;9320;50.256;19.026;2023-02-21T06:07:18;8.30;99.90
18388;DHT22;9320;50.256;19.026;2023-02-21T06:09:46;8.30;99.90
18388;DHT22;9320;50.256;19.026;2023-02-21T06:12:16;8.40;99.90
18388;DHT22;9320;50.256;19.026;2023-02-21T06:14:44;8.40;99.90
18388;DHT22;9320;50.256;19.026;2023-02-21T06:17:12;8.50;99.90
18388;DHT22;9320;50.256;19.026;2023-02-21T06:19:40;8.40;99.90
18388;DHT22;9320;50.256;19.026;2023-02-21T06:22:08;8.50;99.90
18388;DHT22;9320;50.256;19.026;2023-02-21T06:24:36;8.50;99.90
18388;DHT22;9320;50.256;19.026;2023-02-21T06:27:04;8.40;99.90
18388;DHT22;9320;50.256;19.026;2023-02-21T06:29:33;8.50;99.90
18388;DHT22;9320;50.256;19.026;2023-02-21T06:32:02;8.50;99.90
18388;DHT22;9320;50.256;19.026;2023-02-21T06:34:31;8.50;99.90
18388;DHT22;9320;50.256;19.026;2023-02-21T06:36:59;8.60;99.90
18388;DHT22;9320;50.256;19.026;2023-02-21T06:39:27;8.60;99.90
18388;DHT22;9320;50.256;19.026;2023-02-21T06:41:55;8.70;99.90
18388;DHT22;9320;50.256;19.026;2023-02-21T06:44:23;8.80;99.90
18388;DHT22;9320;50.256;19.026;2023-02-21T06:46:52;8.80;99.90
18388;DHT22;9320;50.256;19.026;2023-02-21T06:49:21;8.80;99.90
18388;DHT22;9320;50.256;19.026;2023-02-21T06:51:49;8.80;99.90
18388;DHT22;9320;50.256;19.026;2023-02-21T06:54:17;8.90;99.90
18388;DHT22;9320;50.256;19.026;2023-02-21T06:56:46;9.00;99.90
18388;DHT22;9320;50.256;19.026;2023-02-21T06:59:14;9.00;99.90
18388;DHT22;9320;50.256;19.026;2023-02-21T07:01:42;9.10;99.90
18388;DHT22;9320;50.256;19.026;2023-02-21T07:04:12;9.20;99.90
18388;DHT22;9320;50.256;19.026;2023-02-21T07:06:40;9.20;99.90
18388;DHT22;9320;50.256;19.026;2023-02-21T07:09:09;9.20;99.90
18388;DHT22;9320;50.256;19.026;2023-02-21T07:11:38;9.30;99.90
18388;DHT22;9320;50.256;19.026;2023-02-21T07:14:06;9.30;99.90
18388;DHT22;9320;50.256;19.026;2023-02-21T07:16:35;9.40;99.90
18388;DHT22;9320;50.256;19.026;2023-02-21T07:19:05;9.40;99.90
18388;DHT22;9320;50.256;19.026;2023-02-21T07:21:34;9.30;99.90
18388;DHT22;9320;50.256;19.026;2023-02-21T07:24:02;9.40;99.90
18388;DHT22;9320;50.256;19.026;2023-02-21T07:26:31;9.50;99.90
18388;DHT22;9320;50.256;19.026;2023-02-21T07:28:59;9.50;99.90
18388;DHT22;9320;50.256;19.026;2023-02-21T07:31:27;9.50;99.90
18388;DHT22;9320;50.256;19.026;2023-02-21T07:33:56;9.50;99.90
18388;DHT22;9320;50.256;19.026;2023-02-21T07:36:24;9.60;99.90
18388;DHT22;9320;50.256;19.026;2023-02-21T07:38:53;9.70;99.90
18388;DHT22;9320;50.256;19.026;2023-02-21T07:41:21;9.70;99.90
18388;DHT22;9320;50.256;19.026;2023-02-21T07:43:49;9.70;99.90
18388;DHT22;9320;50.256;19.026;2023-02-21T07:46:18;9.60;99.90
18388;DHT22;9320;50.256;19.026;2023-02-21T07:48:46;9.70;99.90
18388;DHT22;9320;50.256;19.026;2023-02-21T07:51:15;9.70;99.90
18388;DHT22;9320;50.256;19.026;2023-02-21T07:53:43;9.80;99.90
18388;DHT22;9320;50.256;19.026;2023-02-21T07:56:13;9.80;99.90
18388;DHT22;9320;50.256;19.026;2023-02-21T07:58:41;9.80;99.90
18388;DHT22;9320;50.256;19.026;2023-02-21T08:01:09;9.80;99.90
18388;DHT22;9320;50.256;19.026;2023-02-21T08:03:37;9.90;99.90
18388;DHT22;9320;50.256;19.026;2023-02-21T08:06:07;10.10;99.90
18388;DHT22;9320;50.256;19.026;2023-02-21T08:08:36;10.30;99.90
18388;DHT22;9320;50.256;19.026;2023-02-21T08:11:04;10.50;99.90
18388;DHT22;9320;50.256;19.026;2023-02-21T08:13:34;10.50;99.90
18388;DHT22;9320;50.256;19.026;2023-02-21T08:16:03;10.60;99.90
18388;DHT22;9320;50.256;19.026;2023-02-21T08:18:31;10.60;99.90
18388;DHT22;9320;50.256;19.026;2023-02-21T08:20:59;10.70;99.90
18388;DHT22;9320;50.256;19.026;2023-02-21T08:23:27;10.70;99.90
18388;DHT22;9320;50.256;19.026;2023-02-21T08:25:55;10.70;99.90
18388;DHT22;9320;50.256;19.026;2023-02-21T08:28:23;10.50;99.90
18388;DHT22;9320;50.256;19.026;2023-02-21T08:30:53;10.50;99.90
18388;DHT22;9320;50.256;19.026;2023-02-21T08:33:21;10.50;99.90
18388;DHT22;9320;50.256;19.026;2023-02-21T08:35:50;10.40;99.90
18388;DHT22;9320;50.256;19.026;2023-02-21T08:38:18;10.50;99.90
18388;DHT22;9320;50.256;19.026;2023-02-21T08:40:46;10.60;99.90
18388;DHT22;9320;50.256;19.026;2023-02-21T08:43:15;10.50;99.90
18388;DHT22;9320;50.256;19.026;2023-02-21T08:45:43;10.40;99.90
18388;DHT22;9320;50.256;19.026;2023-02-21T08:48:12;10.40;99.90
18388;DHT22;9320;50.256;19.026;2023-02-21T08:50:40;10.50;99.90
18388;DHT22;9320;50.256;19.026;2023-02-21T08:53:10;10.70;99.90
18388;DHT22;9320;50.256;19.026;2023-02-21T08:55:41;10.60;99.90
18388;DHT22;9320;50.256;19.026;2023-02-21T08:58:11;10.70;99.90
18388;DHT22;9320;50.256;19.026;2023-02-21T09:00:40;10.80;99.90
18388;DHT22;9320;50.256;19.026;2023-02-21T09:03:08;10.80;99.90
18388;DHT22;9320;50.256;19.026;2023-02-21T09:05:38;10.80;99.90
18388;DHT22;9320;50.256;19.026;2023-02-21T09:08:06;10.80;99.90
18388;DHT22;9320;50.256;19.026;2023-02-21T09:10:36;10.80;99.90
18388;DHT22;9320;50.256;19.026;2023-02-21T09:13:06;10.80;99.90
18388;DHT22;9320;50.256;19.026;2023-02-21T09:15:34;10.90;99.90
18388;DHT22;9320;50.256;19.026;2023-02-21T09:18:02;10.90;99.90
18388;DHT22;9320;50.256;19.026;2023-02-21T09:20:32;11.00;99.90
18388;DHT22;9320;50.256;19.026;2023-02-21T09:23:01;11.10;99.90
18388;DHT22;9320;50.256;19.026;2023-02-21T09:25:29;11.10;99.90
18388;DHT22;9320;50.256;19.026;2023-02-21T09:27:58;11.30;99.90
18388;DHT22;9320;50.256;19.026;2023-02-21T09:30:27;11.60;99.90
18388;DHT22;9320;50.256;19.026;2023-02-21T09:32:55;11.60;99.90
18388;DHT22;9320;50.256;19.026;2023-02-21T09:35:24;11.50;99.90
18388;DHT22;9320;50.256;19.026;2023-02-21T09:37:55;11.40;99.90
18388;DHT22;9320;50.256;19.026;2023-02-21T09:40:34;11.40;99.90
18388;DHT22;9320;50.256;19.026;2023-02-21T09:43:04;11.40;99.90
18388;DHT22;9320;50.256;19.026;2023-02-21T09:45:36;11.60;99.90
18388;DHT22;9320;50.256;19.026;2023-02-21T09:48:08;11.60;99.90
18388;DHT22;9320;50.256;19.026;2023-02-21T09:50:41;11.60;99.90
18388;DHT22;9320;50.256;19.026;2023-02-21T09:53:15;11.60;99.90
18388;DHT22;9320;50.256;19.026;2023-02-21T09:55:49;11.80;99.90
18388;DHT22;9320;50.256;19.026;2023-02-21T09:58:19;11.90;99.90
18388;DHT22;9320;50.256;19.026;2023-02-21T10:00:48;11.60;99.90
18388;DHT22;9320;50.256;19.026;2023-02-21T10:03:44;11.30;99.90
18388;DHT22;9320;50.256;19.026;2023-02-21T10:06:26;11.30;99.90
18388;DHT22;9320;50.256;19.026;2023-02-21T10:08:59;11.40;99.90
18388;DHT22;9320;50.256;19.026;2023-02-21T10:11:40;11.50;99.90
18388;DHT22;9320;50.256;19.026;2023-02-21T10:14:18;11.60;99.90
18388;DHT22;9320;50.256;19.026;2023-02-21T10:16:53;11.60;99.90
18388;DHT22;9320;50.256;19.026;2023-02-21T10:19:27;11.80;99.90
18388;DHT22;9320;50.256;19.026;2023-02-21T10:21:57;12.10;99.90
18388;DHT22;9320;50.256;19.026;2023-02-21T10:24:27;12.40;99.90
18388;DHT22;9320;50.256;19.026;2023-02-21T10:27:01;12.60;99.90
18388;DHT22;9320;50.256;19.026;2023-02-21T10:29:38;12.70;99.90
18388;DHT22;9320;50.256;19.026;2023-02-21T10:32:09;12.70;99.90
18388;DHT22;9320;50.256;19.026;2023-02-21T10:34:38;12.60;99.90
18388;DHT22;9320;50.256;19.026;2023-02-21T10:37:26;12.30;99.90
18388;DHT22;9320;50.256;19.026;2023-02-21T10:40:00;12.20;99.90
18388;DHT22;9320;50.256;19.026;2023-02-21T10:42:38;12.00;99.90
18388;DHT22;9320;50.256;19.026;2023-02-21T10:45:08;11.90;99.90
18388;DHT22;9320;50.256;19.026;2023-02-21T10:47:47;11.80;99.90
18388;DHT22;9320;50.256;19.026;2023-02-21T10:50:36;11.50;99.90
18388;DHT22;9320;50.256;19.026;2023-02-21T10:53:06;11.50;99.90
18388;DHT22;9320;50.256;19.026;2023-02-21T10:55:34;11.30;99.90
18388;DHT22;9320;50.256;19.026;2023-02-21T10:58:09;11.20;99.90
18388;DHT22;9320;50.256;19.026;2023-02-21T11:00:39;10.90;99.90
18388;DHT22;9320;50.256;19.026;2023-02-21T11:03:21;11.40;99.90
18388;DHT22;9320;50.256;19.026;2023-02-21T11:05:55;11.30;99.90
18388;DHT22;9320;50.256;19.026;2023-02-21T11:08:35;11.20;99.90
18388;DHT22;9320;50.256;19.026;2023-02-21T11:11:04;11.40;99.90
18388;DHT22;9320;50.256;19.026;2023-02-21T11:13:34;11.70;99.90
18388;DHT22;9320;50.256;19.026;2023-02-21T11:16:09;11.70;99.90
18388;DHT22;9320;50.256;19.026;2023-02-21T11:18:37;11.80;99.90
18388;DHT22;9320;50.256;19.026;2023-02-21T11:21:13;11.80;99.90
18388;DHT22;9320;50.256;19.026;2023-02-21T11:23:52;11.60;99.90
18388;DHT22;9320;50.256;19.026;2023-02-21T11:26:24;11.60;99.90
18388;DHT22;9320;50.256;19.026;2023-02-21T11:29:07;11.50;99.90
18388;DHT22;9320;50.256;19.026;2023-02-21T11:31:36;11.40;99.90
18388;DHT22;9320;50.256;19.026;2023-02-21T11:34:07;11.50;99.90
18388;DHT22;9320;50.256;19.026;2023-02-21T11:36:38;11.80;99.90
18388;DHT22;9320;50.256;19.026;2023-02-21T11:39:15;11.90;99.90
18388;DHT22;9320;50.256;19.026;2023-02-21T11:41:46;11.90;99.90
18388;DHT22;9320;50.256;19.026;2023-02-21T11:44:27;12.00;99.90
18388;DHT22;9320;50.256;19.026;2023-02-21T11:47:05;12.20;99.90
18388;DHT22;9320;50.256;19.026;2023-02-21T11:49:41;12.40;99.90
18388;DHT22;9320;50.256;19.026;2023-02-21T11:52:17;12.30;99.90
18388;DHT22;9320;50.256;19.026;2023-02-21T11:54:46;12.20;99.90
18388;DHT22;9320;50.256;19.026;2023-02-21T11:57:19;12.00;99.90
18388;DHT22;9320;50.256;19.026;2023-02-21T11:59:55;11.90;99.90
18388;DHT22;9320;50.256;19.026;2023-02-21T12:02:47;11.90;99.90
18388;DHT22;9320;50.256;19.026;2023-02-21T12:08:37;12.40;99.90
18388;DHT22;9320;50.256;19.026;2023-02-21T12:11:17;12.70;99.90
18388;DHT22;9320;50.256;19.026;2023-02-21T12:13:56;12.60;99.90
18388;DHT22;9320;50.256;19.026;2023-02-21T12:16:39;12.50;99.90
18388;DHT22;9320;50.256;19.026;2023-02-21T12:19:27;12.30;99.90
18388;DHT22;9320;50.256;19.026;2023-02-21T12:22:01;12.50;99.90
18388;DHT22;9320;50.256;19.026;2023-02-21T12:24:45;12.40;99.90
18388;DHT22;9320;50.256;19.026;2023-02-21T12:27:25;12.50;99.90
18388;DHT22;9320;50.256;19.026;2023-02-21T12:30:28;12.70;99.90
18388;DHT22;9320;50.256;19.026;2023-02-21T12:33:18;12.90;99.90
18388;DHT22;9320;50.256;19.026;2023-02-21T12:36:20;12.90;98.70
18388;DHT22;9320;50.256;19.026;2023-02-21T12:38:54;12.80;97.30
18388;DHT22;9320;50.256;19.026;2023-02-21T12:41:42;12.90;95.80
18388;DHT22;9320;50.256;19.026;2023-02-21T12:44:16;13.00;95.00
18388;DHT22;9320;50.256;19.026;2023-02-21T12:46:50;12.80;94.30
18388;DHT22;9320;50.256;19.026;2023-02-21T12:49:24;12.60;94.30
18388;DHT22;9320;50.256;19.026;2023-02-21T12:51:57;12.50;95.10
18388;DHT22;9320;50.256;19.026;2023-02-21T12:54:35;12.40;96.40
18388;DHT22;9320;50.256;19.026;2023-02-21T12:57:09;12.40;98.50
18388;DHT22;9320;50.256;19.026;2023-02-21T12:59:50;12.30;99.90
18388;DHT22;9320;50.256;19.026;2023-02-21T13:02:29;12.40;99.90
18388;DHT22;9320;50.256;19.026;2023-02-21T13:05:04;12.50;99.90
18388;DHT22;9320;50.256;19.026;2023-02-21T13:07:44;12.50;99.30
18388;DHT22;9320;50.256;19.026;2023-02-21T13:10:17;12.80;98.70
18388;DHT22;9320;50.256;19.026;2023-02-21T13:12:56;12.50;99.00
18388;DHT22;9320;50.256;19.026;2023-02-21T13:15:27;12.50;98.40
18388;DHT22;9320;50.256;19.026;2023-02-21T13:17:59;12.20;98.50
18388;DHT22;9320;50.256;19.026;2023-02-21T13:20:33;12.00;99.10
18388;DHT22;9320;50.256;19.026;2023-02-21T13:23:03;12.10;99.70
18388;DHT22;9320;50.256;19.026;2023-02-21T13:25:49;12.00;99.90
18388;DHT22;9320;50.256;19.026;2023-02-21T13:28:21;12.10;99.90
18388;DHT22;9320;50.256;19.026;2023-02-21T13:30:51;12.00;99.80
18388;DHT22;9320;50.256;19.026;2023-02-21T13:33:25;12.00;99.90
18388;DHT22;9320;50.256;19.026;2023-02-21T13:35:57;11.90;99.90
18388;DHT22;9320;50.256;19.026;2023-02-21T13:38:28;11.90;99.90
18388;DHT22;9320;50.256;19.026;2023-02-21T13:41:06;12.00;99.30
18388;DHT22;9320;50.256;19.026;2023-02-21T13:43:44;11.80;99.40
18388;DHT22;9320;50.256;19.026;2023-02-21T13:55:23;11.90;99.90
18388;DHT22;9320;50.256;19.026;2023-02-21T14:01:39;11.80;99.90
18388;DHT22;9320;50.256;19.026;2023-02-21T14:04:49;11.80;99.90
18388;DHT22;9320;50.256;19.026;2023-02-21T14:10:43;12.20;99.90
18388;DHT22;9320;50.256;19.026;2023-02-21T14:13:26;12.20;99.90
18388;DHT22;9320;50.256;19.026;2023-02-21T14:15:59;12.10;99.90
18388;DHT22;9320;50.256;19.026;2023-02-21T14:18:41;12.00;99.90
18388;DHT22;9320;50.256;19.026;2023-02-21T14:21:15;11.80;99.90
18388;DHT22;9320;50.256;19.026;2023-02-21T14:23:50;11.80;99.90
18388;DHT22;9320;50.256;19.026;2023-02-21T14:26:40;11.70;99.90
18388;DHT22;9320;50.256;19.026;2023-02-21T14:29:13;11.70;99.90
18388;DHT22;9320;50.256;19.026;2023-02-21T14:31:50;11.60;99.90
18388;DHT22;9320;50.256;19.026;2023-02-21T14:34:29;11.60;99.90
18388;DHT22;9320;50.256;19.026;2023-02-21T14:37:02;11.50;99.90
18388;DHT22;9320;50.256;19.026;2023-02-21T14:39:34;11.40;99.90
18388;DHT22;9320;50.256;19.026;2023-02-21T14:42:19;11.30;99.90
18388;DHT22;9320;50.256;19.026;2023-02-21T14:45:00;11.30;99.90
18388;DHT22;9320;50.256;19.026;2023-02-21T14:48:04;11.30;99.90
18388;DHT22;9320;50.256;19.026;2023-02-21T14:50:41;11.30;99.90
18388;DHT22;9320;50.256;19.026;2023-02-21T14:53:36;11.30;99.90
18388;DHT22;9320;50.256;19.026;2023-02-21T14:56:44;11.30;99.90
18388;DHT22;9320;50.256;19.026;2023-02-21T14:59:31;11.40;99.90
18388;DHT22;9320;50.256;19.026;2023-02-21T15:02:25;11.40;99.90
18388;DHT22;9320;50.256;19.026;2023-02-21T15:04:59;11.30;99.90
18388;DHT22;9320;50.256;19.026;2023-02-21T15:07:33;11.30;99.90
18388;DHT22;9320;50.256;19.026;2023-02-21T15:10:13;11.30;99.90
18388;DHT22;9320;50.256;19.026;2023-02-21T15:12:43;11.40;99.90
18388;DHT22;9320;50.256;19.026;2023-02-21T15:15:17;11.30;99.90
18388;DHT22;9320;50.256;19.026;2023-02-21T15:17:58;11.20;99.90
18388;DHT22;9320;50.256;19.026;2023-02-21T15:20:28;11.20;99.90
18388;DHT22;9320;50.256;19.026;2023-02-21T15:22:59;11.30;99.90
18388;DHT22;9320;50.256;19.026;2023-02-21T15:25:28;11.40;99.90
18388;DHT22;9320;50.256;19.026;2023-02-21T15:28:01;11.40;99.90
18388;DHT22;9320;50.256;19.026;2023-02-21T15:30:36;11.40;99.90
18388;DHT22;9320;50.256;19.026;2023-02-21T15:33:14;11.30;99.90
18388;DHT22;9320;50.256;19.026;2023-02-21T15:35:47;11.50;99.90
18388;DHT22;9320;50.256;19.026;2023-02-21T15:38:21;11.50;99.90
18388;DHT22;9320;50.256;19.026;2023-02-21T15:40:51;11.50;99.90
18388;DHT22;9320;50.256;19.026;2023-02-21T15:43:26;11.40;99.90
18388;DHT22;9320;50.256;19.026;2023-02-21T15:45:59;11.40;99.90
18388;DHT22;9320;50.256;19.026;2023-02-21T15:48:29;11.40;99.90
18388;DHT22;9320;50.256;19.026;2023-02-21T15:51:00;11.30;99.90
18388;DHT22;9320;50.256;19.026;2023-02-21T15:53:29;11.20;99.90
18388;DHT22;9320;50.256;19.026;2023-02-21T15:56:17;11.10;99.90
18388;DHT22;9320;50.256;19.026;2023-02-21T15:59:07;11.10;99.90
18388;DHT22;9320;50.256;19.026;2023-02-21T16:01:37;11.10;99.90
18388;DHT22;9320;50.256;19.026;2023-02-21T16:04:23;11.10;99.90
18388;DHT22;9320;50.256;19.026;2023-02-21T16:07:01;11.10;99.90
18388;DHT22;9320;50.256;19.026;2023-02-21T16:09:31;11.10;99.90
18388;DHT22;9320;50.256;19.026;2023-02-21T16:12:04;11.10;99.90
18388;DHT22;9320;50.256;19.026;2023-02-21T16:14:38;11.10;99.90
18388;DHT22;9320;50.256;19.026;2023-02-21T16:17:21;11.00;99.90
18388;DHT22;9320;50.256;19.026;2023-02-21T16:19:51;11.00;99.90
18388;DHT22;9320;50.256;19.026;2023-02-21T16:22:28;11.00;99.90
18388;DHT22;9320;50.256;19.026;2023-02-21T16:25:15;11.10;99.90
18388;DHT22;9320;50.256;19.026;2023-02-21T16:27:45;11.10;99.90
18388;DHT22;9320;50.256;19.026;2023-02-21T16:30:15;11.10;99.90
18388;DHT22;9320;50.256;19.026;2023-02-21T16:32:46;11.10;99.90
18388;DHT22;9320;50.256;19.026;2023-02-21T16:35:16;11.00;99.90
18388;DHT22;9320;50.256;19.026;2023-02-21T16:37:47;10.90;99.90
18388;DHT22;9320;50.256;19.026;2023-02-21T16:40:19;10.90;99.90
18388;DHT22;9320;50.256;19.026;2023-02-21T16:42:49;10.90;99.90
18388;DHT22;9320;50.256;19.026;2023-02-21T16:45:18;11.00;99.90
18388;DHT22;9320;50.256;19.026;2023-02-21T16:47:49;11.00;99.90